createdAt,value
2018-07-22T00:01:28.233Z,73.93
2018-07-22T00:05:31.701Z,73.51
2018-07-22T00:09:35.122Z,74.01
2018-07-22T00:13:38.577Z,73.61
2018-07-22T00:17:42.071Z,73.23
2018-07-22T00:21:45.528Z,73.85
2018-07-22T00:25:48.948Z,74.05
2018-07-22T00:29:52.390Z,73.93
2018-07-22T00:33:55.813Z,74.15
2018-07-22T00:37:59.266Z,74.44
2018-07-22T00:42:02.770Z,74.74
2018-07-22T00:46:06.319Z,74.46
2018-07-22T00:50:09.770Z,74.73
2018-07-22T00:54:13.243Z,73.95
2018-07-22T00:58:16.784Z,74.09
2018-07-22T01:02:20.283Z,73.61
2018-07-22T01:06:23.826Z,73.65
2018-07-22T01:10:27.250Z,73.50
2018-07-22T01:14:30.698Z,73.01
2018-07-22T01:18:34.240Z,73.56
2018-07-22T01:22:37.789Z,73.21
2018-07-22T01:26:41.265Z,72.96
2018-07-22T01:30:44.730Z,72.99
2018-07-22T01:34:48.147Z,72.96
2018-07-22T01:38:51.609Z,73.56
2018-07-22T01:42:55.091Z,73.27
2018-07-22T01:46:58.566Z,73.72
2018-07-22T01:51:02.034Z,73.42
2018-07-22T01:55:05.511Z,74.35
2018-07-22T01:59:09.136Z,74.10
2018-07-22T02:03:12.565Z,74.45
2018-07-22T02:07:16.107Z,74.03
2018-07-22T02:11:19.520Z,74.82
2018-07-22T02:15:22.968Z,73.77
2018-07-22T02:19:26.400Z,74.17
2018-07-22T02:23:29.916Z,74.23
2018-07-22T02:31:35.801Z,75.12
2018-07-22T02:35:39.271Z,74.25
2018-07-22T02:39:42.898Z,74.64
2018-07-22T02:43:46.369Z,74.98
2018-07-22T02:47:49.859Z,74.56
2018-07-22T02:51:54.150Z,73.87
2018-07-22T02:55:57.605Z,73.47
2018-07-22T03:00:01.077Z,73.95
2018-07-22T03:04:04.755Z,73.97
2018-07-22T03:08:08.198Z,73.79
2018-07-22T03:12:11.655Z,72.99
2018-07-22T03:16:15.136Z,73.41
2018-07-22T03:20:19.118Z,73.42
2018-07-22T03:24:22.662Z,73.56
2018-07-22T03:28:26.113Z,72.95
2018-07-22T03:32:29.567Z,73.63
2018-07-22T03:36:33.039Z,73.77
2018-07-22T03:40:36.482Z,73.93
2018-07-22T03:44:39.960Z,73.79
2018-07-22T03:48:43.396Z,73.94
2018-07-22T03:52:46.860Z,73.91
2018-07-22T03:56:50.330Z,74.05
2018-07-22T04:00:53.787Z,73.44
2018-07-22T04:04:57.250Z,73.63
2018-07-22T04:09:00.981Z,73.70
2018-07-22T04:13:04.455Z,73.34
2018-07-22T04:17:08.218Z,73.53
2018-07-22T04:21:11.681Z,73.65
2018-07-22T04:25:15.130Z,73.52
2018-07-22T04:29:18.577Z,73.19
2018-07-22T04:33:22.060Z,73.80
2018-07-22T04:37:25.479Z,73.42
2018-07-22T04:41:28.949Z,73.58
2018-07-22T04:45:32.434Z,72.76
2018-07-22T04:49:35.882Z,72.97
2018-07-22T04:53:39.415Z,72.57
2018-07-22T04:57:42.906Z,73.02
2018-07-22T05:01:46.378Z,72.54
2018-07-22T05:05:49.806Z,72.64
2018-07-22T05:09:53.267Z,72.02
2018-07-22T05:13:56.682Z,71.85
2018-07-22T05:18:00.156Z,72.32
2018-07-22T05:22:03.558Z,71.93
2018-07-22T05:26:07.041Z,72.58
2018-07-22T05:30:10.461Z,71.93
2018-07-22T05:34:13.922Z,72.30
2018-07-22T05:38:17.366Z,71.86
2018-07-22T05:42:20.814Z,71.58
2018-07-22T05:46:24.245Z,72.42
2018-07-22T05:50:27.666Z,71.80
2018-07-22T05:54:31.101Z,72.01
2018-07-22T05:58:34.583Z,71.61
2018-07-22T06:02:38.112Z,70.99
2018-07-22T06:06:41.578Z,71.05
2018-07-22T06:10:45.018Z,71.24
2018-07-22T06:14:48.489Z,71.36
2018-07-22T06:18:51.915Z,71.37
2018-07-22T06:22:55.342Z,71.83
2018-07-22T06:26:58.805Z,71.96
2018-07-22T06:31:02.253Z,71.54
2018-07-22T06:35:05.839Z,71.94
2018-07-22T06:39:11.749Z,71.74
2018-07-22T06:43:15.194Z,72.22
2018-07-22T06:47:18.670Z,72.62
2018-07-22T06:51:22.117Z,72.30
2018-07-22T06:55:25.883Z,71.93
2018-07-22T06:59:29.401Z,72.38
2018-07-22T07:03:32.847Z,72.11
2018-07-22T07:07:36.307Z,72.33
2018-07-22T07:11:40.073Z,71.79
2018-07-22T07:15:43.538Z,71.22
2018-07-22T07:19:47.040Z,71.09
2018-07-22T07:23:50.494Z,71.28
2018-07-22T07:27:53.954Z,70.68
2018-07-22T07:31:57.427Z,70.91
2018-07-22T07:36:00.901Z,69.90
2018-07-22T07:40:04.442Z,69.27
2018-07-22T07:44:07.956Z,69.47
2018-07-22T07:48:11.402Z,69.45
2018-07-22T07:52:14.970Z,69.47
2018-07-22T07:56:18.455Z,69.18
2018-07-22T08:00:21.960Z,67.92
2018-07-22T08:04:25.501Z,68.32
2018-07-22T08:08:29.255Z,68.22
2018-07-22T08:12:32.851Z,67.55
2018-07-22T08:16:36.754Z,67.10
2018-07-22T08:20:40.277Z,66.49
2018-07-22T08:24:43.711Z,65.75
2018-07-22T08:29:22.061Z,66.37
2018-07-22T08:33:25.525Z,66.37
2018-07-22T08:37:29.022Z,67.24
2018-07-22T08:41:32.535Z,67.88
2018-07-22T08:45:35.980Z,68.25
2018-07-22T08:49:39.431Z,67.59
2018-07-22T08:53:42.926Z,67.72
2018-07-22T08:57:46.548Z,66.54
2018-07-22T09:01:49.997Z,66.64
2018-07-22T09:05:53.499Z,66.33
2018-07-22T09:09:56.954Z,66.27
2018-07-22T09:14:00.433Z,66.06
2018-07-22T09:18:03.951Z,65.08
2018-07-22T09:22:07.414Z,63.52
2018-07-22T09:26:10.893Z,63.55
2018-07-22T09:30:14.419Z,63.42
2018-07-22T09:34:17.907Z,62.63
2018-07-22T09:38:21.436Z,62.11
2018-07-22T09:42:24.904Z,61.52
2018-07-22T09:46:28.354Z,59.94
2018-07-22T09:50:31.846Z,60.18
2018-07-22T09:54:35.284Z,60.78
2018-07-22T09:58:38.987Z,61.31
2018-07-22T10:02:42.365Z,59.76
2018-07-22T10:06:45.958Z,58.96
2018-07-22T10:10:49.466Z,58.63
2018-07-22T10:14:52.936Z,57.43
2018-07-22T10:18:56.421Z,58.17
2018-07-22T10:22:59.918Z,58.16
2018-07-22T10:27:03.627Z,58.05
2018-07-22T10:31:07.108Z,58.26
2018-07-22T10:35:10.610Z,56.58
2018-07-22T10:39:14.041Z,56.51
2018-07-22T10:43:17.520Z,57.65
2018-07-22T10:47:20.983Z,58.45
2018-07-22T10:51:24.488Z,58.29
2018-07-22T10:55:28.048Z,57.95
2018-07-22T10:59:31.556Z,58.98
2018-07-22T11:03:35.092Z,59.30
2018-07-22T11:07:38.597Z,58.69
2018-07-22T11:11:42.096Z,58.12
2018-07-22T11:15:45.538Z,58.80
2018-07-22T11:19:49.054Z,60.16
2018-07-22T11:23:52.511Z,60.34
2018-07-22T11:27:56.151Z,59.15
2018-07-22T11:31:59.645Z,59.37
2018-07-22T11:36:03.178Z,58.71
2018-07-22T11:40:06.607Z,58.50
2018-07-22T11:44:10.530Z,59.64
2018-07-22T11:48:13.996Z,58.12
2018-07-22T11:52:17.491Z,57.41
2018-07-22T11:56:20.986Z,58.57
2018-07-22T12:00:24.499Z,57.80
2018-07-22T12:04:27.977Z,57.75
2018-07-22T12:08:31.439Z,57.24
2018-07-22T12:12:35.012Z,55.98
2018-07-22T12:16:38.388Z,56.79
2018-07-22T12:20:41.931Z,56.68
2018-07-22T12:24:45.857Z,57.06
2018-07-22T12:28:49.449Z,56.45
2018-07-22T12:32:52.930Z,56.54
2018-07-22T12:36:56.483Z,57.25
2018-07-22T12:40:59.909Z,57.51
2018-07-22T12:45:03.493Z,57.67
2018-07-22T12:49:07.503Z,57.45
2018-07-22T12:53:13.570Z,57.78
2018-07-22T12:57:17.045Z,57.31
2018-07-22T13:01:20.644Z,57.29
2018-07-22T13:05:24.173Z,57.17
2018-07-22T13:09:27.657Z,57.50
2018-07-22T13:13:32.451Z,55.45
2018-07-22T13:17:35.934Z,57.54
2018-07-22T13:21:39.420Z,57.92
2018-07-22T13:25:42.864Z,57.52
2018-07-22T13:29:46.335Z,57.06
2018-07-22T13:33:49.862Z,57.50
2018-07-22T13:37:53.324Z,58.65
2018-07-22T13:41:56.939Z,56.62
2018-07-22T13:46:00.398Z,57.68
2018-07-22T13:50:03.865Z,59.03
2018-07-22T13:54:08.126Z,58.97
2018-07-22T13:58:11.914Z,57.67
2018-07-22T14:02:15.391Z,57.84
2018-07-22T14:06:18.847Z,58.35
2018-07-22T14:10:22.634Z,58.52
2018-07-22T14:14:26.088Z,59.10
2018-07-22T14:18:29.675Z,58.96
2018-07-22T14:22:33.220Z,59.28
2018-07-22T14:26:36.760Z,59.50
2018-07-22T14:30:40.310Z,59.81
2018-07-22T14:34:45.099Z,59.37
2018-07-22T14:38:48.665Z,58.77
2018-07-22T14:42:52.362Z,58.87
2018-07-22T14:46:55.926Z,59.23
2018-07-22T14:50:59.400Z,58.81
2018-07-22T14:55:02.891Z,59.54
2018-07-22T14:59:06.468Z,59.36
2018-07-22T15:03:09.975Z,59.20
2018-07-22T15:07:13.549Z,59.20
2018-07-22T15:11:17.041Z,59.35
2018-07-22T15:15:20.575Z,60.34
2018-07-22T15:19:24.454Z,59.75
2018-07-22T15:23:28.027Z,59.70
2018-07-22T15:27:31.557Z,59.86
2018-07-22T15:31:35.082Z,59.43
2018-07-22T15:35:38.628Z,60.31
2018-07-22T15:39:42.098Z,59.99
2018-07-22T15:43:45.578Z,60.59
2018-07-22T15:47:49.294Z,59.67
2018-07-22T15:51:52.840Z,59.36
2018-07-22T15:55:56.354Z,60.49
2018-07-22T15:59:59.809Z,59.84
2018-07-22T16:04:03.351Z,58.58
2018-07-22T16:08:06.961Z,58.86
2018-07-22T16:12:10.447Z,59.60
2018-07-22T16:16:13.922Z,58.00
2018-07-22T16:20:17.453Z,57.02
2018-07-22T16:24:20.880Z,57.14
2018-07-22T16:28:24.353Z,57.87
2018-07-22T16:32:27.911Z,58.29
2018-07-22T16:36:31.438Z,57.54
2018-07-22T16:40:34.922Z,58.14
2018-07-22T16:44:38.426Z,58.42
2018-07-22T16:48:41.907Z,57.94
2018-07-22T16:52:45.399Z,58.43
2018-07-22T16:56:48.944Z,58.70
2018-07-22T17:00:52.420Z,59.63
2018-07-22T17:04:55.923Z,60.21
2018-07-22T17:08:59.415Z,60.07
2018-07-22T17:13:02.904Z,59.46
2018-07-22T17:17:06.459Z,60.40
2018-07-22T17:21:09.951Z,60.06
2018-07-22T17:25:13.422Z,60.29
2018-07-22T17:29:16.910Z,60.78
2018-07-22T17:33:20.570Z,61.45
2018-07-22T17:37:24.032Z,61.37
2018-07-22T17:41:27.510Z,62.57
2018-07-22T17:45:31.053Z,62.65
2018-07-22T17:49:34.591Z,63.20
2018-07-22T17:53:38.367Z,64.49
2018-07-22T17:57:41.835Z,65.87
2018-07-22T18:01:45.395Z,66.34
2018-07-22T18:05:48.966Z,65.94
2018-07-22T18:09:52.457Z,66.14
2018-07-22T18:13:55.956Z,66.64
2018-07-22T18:17:59.455Z,67.77
2018-07-22T18:22:02.953Z,68.09
2018-07-22T18:26:06.489Z,68.47
2018-07-22T18:30:09.998Z,67.67
2018-07-22T18:34:13.519Z,68.72
2018-07-22T18:38:17.009Z,68.49
2018-07-22T18:42:20.530Z,68.72
2018-07-22T18:46:23.995Z,68.43
2018-07-22T18:50:27.478Z,68.22
2018-07-22T18:54:30.959Z,69.77
2018-07-22T18:58:34.471Z,69.67
2018-07-22T19:02:38.026Z,69.06
2018-07-22T19:06:41.507Z,69.03
2018-07-22T19:10:45.004Z,69.86
2018-07-22T19:14:48.443Z,69.34
2018-07-22T19:18:51.927Z,69.12
2018-07-22T19:22:55.448Z,69.70
2018-07-22T19:26:58.926Z,69.12
2018-07-22T19:31:02.394Z,69.80
2018-07-22T19:35:05.881Z,70.16
2018-07-22T19:39:10.218Z,69.63
2018-07-22T19:43:13.669Z,69.82
2018-07-22T19:47:17.163Z,69.62
2018-07-22T19:51:20.622Z,70.27
2018-07-22T19:55:24.138Z,70.83
2018-07-22T19:59:27.651Z,70.64
2018-07-22T20:03:31.122Z,71.51
2018-07-22T20:07:34.620Z,71.22
2018-07-22T20:11:38.065Z,71.73
2018-07-22T20:15:41.582Z,70.63
2018-07-22T20:19:45.059Z,71.83
2018-07-22T20:23:48.644Z,71.74
2018-07-22T20:27:52.123Z,71.35
2018-07-22T20:31:55.610Z,71.77
2018-07-22T20:35:59.118Z,71.97
2018-07-22T20:40:02.578Z,71.31
2018-07-22T20:44:06.043Z,71.68
2018-07-22T20:48:09.495Z,71.48
2018-07-22T20:52:13.027Z,71.42
2018-07-22T20:56:16.521Z,71.40
2018-07-22T21:00:19.997Z,71.76
2018-07-22T21:04:23.476Z,71.98
2018-07-22T21:08:26.965Z,71.74
2018-07-22T21:12:44.614Z,71.14
2018-07-22T21:16:48.139Z,71.60
2018-07-22T21:20:51.651Z,71.87
2018-07-22T21:24:55.116Z,73.08
2018-07-22T21:28:58.612Z,72.59
2018-07-22T21:33:02.243Z,73.07
2018-07-22T21:37:05.854Z,73.36
2018-07-22T21:41:09.571Z,72.82
2018-07-22T21:45:13.062Z,72.40
2018-07-22T21:49:16.603Z,72.16
2018-07-22T21:53:20.057Z,72.35
2018-07-22T21:57:23.629Z,72.49
2018-07-22T22:01:27.169Z,72.25
2018-07-22T22:05:30.691Z,72.20
2018-07-22T22:09:34.319Z,72.04
2018-07-22T22:13:37.829Z,72.40
2018-07-22T22:17:41.288Z,71.90
2018-07-22T22:21:44.777Z,71.98
2018-07-22T22:25:48.228Z,72.02
2018-07-22T22:29:51.773Z,72.54
2018-07-22T22:33:55.217Z,72.20
2018-07-22T22:37:58.695Z,72.31
2018-07-22T22:42:02.221Z,72.56
2018-07-22T22:46:05.740Z,73.17
2018-07-22T22:50:09.198Z,72.49
2018-07-22T22:54:12.673Z,72.95
2018-07-22T22:58:27.453Z,72.98
2018-07-22T23:02:36.039Z,73.61
2018-07-22T23:06:39.558Z,73.36
2018-07-22T23:10:43.008Z,73.29
2018-07-22T23:14:46.528Z,73.78
2018-07-22T23:18:49.982Z,72.89
2018-07-22T23:22:53.501Z,73.73
2018-07-22T23:26:56.974Z,74.00
2018-07-22T23:31:00.467Z,73.69
2018-07-22T23:35:03.945Z,73.23
2018-07-22T23:39:09.016Z,73.28
2018-07-22T23:43:12.506Z,73.29
2018-07-22T23:47:15.973Z,72.66
2018-07-22T23:51:19.446Z,73.05
2018-07-22T23:55:22.938Z,72.81
2018-07-22T23:59:26.376Z,72.56
